This is the latest recevied weather packets stored in our database for station/object KC3SPD-13. If no packets are shown the sender has not sent any weather packets the latest 10 day(s).
| Time | Temp. | Humidity | Pressure | Rain* | Wind** | Luminosity | Snow |
|---|---|---|---|---|---|---|---|
| 1777406704 | 12.78° C | 100% | 967.7 hPa | 0 mm | - | 0 W/m² | - |
| 1777404004 | 13.33° C | 98% | 967.9 hPa | 0 mm | - | 0 W/m² | - |
| 1777403704 | 12.78° C | 97% | 967.9 hPa | 0 mm | - | 0 W/m² | - |
| 1777401004 | 12.78° C | 96% | 968 hPa | 0 mm | - | 0 W/m² | - |
| 1777399804 | 12.78° C | 93% | 967.8 hPa | 0 mm | - | 0 W/m² | - |
| 1777397704 | 12.78° C | 90% | 968 hPa | 0 mm | - | 0 W/m² | - |
| 1777396804 | 12.78° C | 92% | 968 hPa | 0 mm | - | 0 W/m² | - |
| 1777395604 | 12.78° C | 91% | 968.1 hPa | 0 mm | - | 0 W/m² | - |
| 1777395004 | 12.78° C | 91% | 968.1 hPa | 0 mm | - | 0 W/m² | - |
| 1777394704 | 12.78° C | 90% | 968 hPa | 0 mm | - | 0 W/m² | - |
| 1777393804 | 12.22° C | 94% | 967.9 hPa | 0 mm | - | 0 W/m² | - |
| 1777393504 | 11.67° C | 94% | 967.9 hPa | 0 mm | - | 0 W/m² | - |
| 1777391704 | 11.67° C | 95% | 968.3 hPa | 0 mm | - | 0 W/m² | - |
| 1777390204 | 11.11° C | 99% | 968.4 hPa | 0 mm | - | 0 W/m² | - |
| 1777386304 | 10° C | 99% | 968.6 hPa | 0 mm | - | 0 W/m² | - |
| 1777383304 | 9.44° C | 99% | 968.8 hPa | 0 mm | - | 0 W/m² | - |
| 1777378504 | 8.89° C | 99% | 970.1 hPa | 1.02 mm | - | 52 W/m² | - |
| 1777377306 | 8.89° C | 99% | 966.2 hPa | 0.25 mm | - | 87 W/m² | - |
| 1777376105 | 9.44° C | 100% | 969.3 hPa | 0 mm | - | 43 W/m² | - |
| 1777372804 | 9.44° C | 95% | 969.2 hPa | 1.52 mm | - | 4 W/m² | - |
| 1777370404 | 10.56° C | 86% | 969.3 hPa | 1.02 mm | - | 0 W/m² | - |
| 1777368604 | 11.67° C | 72% | 969.1 hPa | 0 mm | - | 0 W/m² | - |
| 1777368004 | 11.67° C | 71% | 969.1 hPa | 0 mm | - | 0 W/m² | - |
| 1777367104 | 11.67° C | 72% | 969.2 hPa | 0 mm | - | 0 W/m² | - |
| 1777363804 | 11.67° C | 72% | 969.6 hPa | 0 mm | - | 0 W/m² | - |
* Rain latest hour (hover to see other rain measurements)
** Current wind speed in m/s (hover to see current wind gust speed)